createdAt,value
2023-08-10T00:00:47.501Z,0.69
2023-08-10T00:03:14.812Z,0.66
2023-08-10T00:05:41.978Z,0.71
2023-08-10T00:08:09.102Z,0.59
2023-08-10T00:10:36.217Z,0.79
2023-08-10T00:13:03.679Z,0.66
2023-08-10T00:15:32.980Z,0.69
2023-08-10T00:18:00.567Z,0.79
2023-08-10T00:20:27.997Z,0.76
2023-08-10T00:22:55.531Z,0.81
2023-08-10T00:25:23.121Z,0.71
2023-08-10T00:27:50.635Z,0.77
2023-08-10T00:30:18.646Z,0.77
2023-08-10T00:32:47.802Z,0.76
2023-08-10T00:35:15.520Z,0.75
2023-08-10T00:37:43.123Z,0.85
2023-08-10T00:40:11.600Z,0.80
2023-08-10T00:42:39.306Z,0.67
2023-08-10T00:45:08.000Z,0.77
2023-08-10T00:47:35.833Z,1.05
2023-08-10T00:50:05.921Z,0.72
2023-08-10T00:52:33.919Z,0.85
2023-08-10T00:55:01.928Z,0.89
2023-08-10T00:57:30.240Z,0.68
2023-08-10T00:59:57.841Z,0.80
2023-08-10T01:02:26.095Z,0.78
2023-08-10T01:04:53.611Z,0.91
2023-08-10T01:07:35.685Z,0.84
2023-08-10T01:10:15.273Z,0.71
2023-08-10T01:12:49.667Z,0.93
2023-08-10T01:15:24.675Z,0.69
2023-08-10T01:17:56.766Z,0.79
2023-08-10T01:20:26.719Z,0.84
2023-08-10T01:23:11.359Z,0.71
2023-08-10T01:25:43.450Z,0.70
2023-08-10T01:28:12.019Z,0.74
2023-08-10T01:30:40.018Z,0.69
2023-08-10T01:33:07.682Z,0.79
2023-08-10T01:35:35.215Z,0.72
2023-08-10T01:38:02.891Z,0.73
2023-08-10T01:40:30.400Z,0.74
2023-08-10T01:42:59.523Z,0.85
2023-08-10T01:45:27.039Z,0.95
2023-08-10T01:47:59.004Z,0.93
2023-08-10T01:50:30.973Z,0.79
2023-08-10T01:53:05.438Z,0.71
2023-08-10T01:55:33.522Z,0.71
2023-08-10T01:58:03.443Z,0.80
2023-08-10T02:00:31.279Z,0.80
2023-08-10T02:02:58.985Z,0.73
2023-08-10T02:05:26.804Z,0.77
2023-08-10T02:07:54.322Z,0.78
2023-08-10T02:10:21.945Z,0.72
2023-08-10T02:12:49.361Z,0.72
2023-08-10T02:15:18.401Z,0.66
2023-08-10T02:17:46.016Z,0.68
2023-08-10T02:20:14.490Z,0.75
2023-08-10T02:22:43.933Z,0.64
2023-08-10T02:25:11.601Z,0.65
2023-08-10T02:27:40.329Z,0.84
2023-08-10T02:30:09.921Z,0.75
2023-08-10T02:32:39.274Z,0.67
2023-08-10T02:35:07.533Z,0.77
2023-08-10T02:37:35.280Z,0.69
2023-08-10T02:40:03.521Z,0.77
2023-08-10T02:42:30.960Z,0.73
2023-08-10T02:44:58.645Z,0.75
2023-08-10T02:47:26.510Z,0.88
2023-08-10T02:49:55.547Z,0.85
2023-08-10T02:52:23.123Z,0.69
2023-08-10T02:54:50.960Z,0.76
2023-08-10T02:57:18.504Z,0.64
2023-08-10T02:59:46.089Z,0.74
2023-08-10T03:05:06.591Z,0.76
2023-08-10T03:07:33.824Z,0.65
2023-08-10T03:10:00.928Z,0.79
2023-08-10T03:12:28.115Z,0.61
2023-08-10T03:14:55.175Z,0.59
2023-08-10T03:17:22.382Z,0.84
2023-08-10T03:19:49.535Z,0.68
2023-08-10T03:22:18.185Z,0.82
2023-08-10T03:24:45.175Z,0.73
2023-08-10T03:27:12.357Z,0.78
2023-08-10T03:29:39.428Z,0.73
2023-08-10T03:32:06.960Z,0.94
2023-08-10T03:34:34.335Z,0.81
2023-08-10T03:37:03.034Z,0.76
2023-08-10T03:39:31.654Z,0.69
2023-08-10T03:41:58.755Z,0.63
2023-08-10T03:44:25.893Z,0.83
2023-08-10T03:46:52.895Z,0.70
2023-08-10T03:49:20.098Z,0.69
2023-08-10T03:51:47.142Z,0.58
2023-08-10T03:54:14.213Z,0.84
2023-08-10T03:56:42.736Z,0.75
2023-08-10T03:59:09.855Z,0.73
2023-08-10T04:01:37.078Z,0.76
2023-08-10T04:04:05.431Z,0.78
2023-08-10T04:06:32.737Z,0.74
2023-08-10T04:08:59.774Z,0.87
2023-08-10T04:11:26.916Z,0.68
2023-08-10T04:13:55.394Z,0.73
2023-08-10T04:16:22.590Z,0.88
2023-08-10T04:18:49.773Z,0.85
2023-08-10T04:21:16.918Z,0.67
2023-08-10T04:23:43.954Z,0.73
2023-08-10T04:26:11.381Z,0.71
2023-08-10T04:28:38.437Z,1.03
2023-08-10T04:31:07.519Z,0.92
2023-08-10T04:33:35.010Z,0.81
2023-08-10T04:36:02.608Z,0.79
2023-08-10T04:38:30.131Z,0.80
2023-08-10T04:40:57.657Z,0.79
2023-08-10T04:43:25.253Z,0.70
2023-08-10T04:45:52.656Z,0.72
2023-08-10T04:48:21.987Z,0.76
2023-08-10T04:50:49.570Z,0.86
2023-08-10T04:53:17.012Z,0.86
2023-08-10T04:55:44.539Z,0.83
2023-08-10T04:58:12.059Z,0.94
2023-08-10T05:00:40.006Z,0.97
2023-08-10T05:03:07.669Z,0.79
2023-08-10T05:05:39.898Z,0.81
2023-08-10T05:08:07.896Z,0.78
2023-08-10T05:10:35.418Z,0.69
2023-08-10T05:13:02.865Z,0.87
2023-08-10T05:15:30.448Z,0.83
2023-08-10T05:17:58.095Z,0.79
2023-08-10T05:20:25.493Z,0.73
2023-08-10T05:22:54.691Z,0.91
2023-08-10T05:25:22.212Z,0.90
2023-08-10T05:27:49.657Z,0.81
2023-08-10T05:30:17.335Z,0.83
2023-08-10T05:32:45.439Z,0.83
2023-08-10T05:35:13.893Z,0.78
2023-08-10T05:37:41.494Z,0.92
2023-08-10T05:40:12.162Z,0.96
2023-08-10T05:42:41.344Z,0.81
2023-08-10T05:45:10.549Z,0.82
2023-08-10T05:47:38.048Z,0.70
2023-08-10T05:50:06.857Z,0.84
2023-08-10T05:52:34.453Z,0.73
2023-08-10T05:55:01.974Z,0.67
2023-08-10T05:57:31.091Z,0.93
2023-08-10T05:59:58.693Z,1.03
2023-08-10T06:02:26.131Z,0.83
2023-08-10T06:04:53.729Z,0.96
2023-08-10T06:07:21.332Z,0.84
2023-08-10T06:09:48.860Z,0.96
2023-08-10T06:12:16.375Z,0.79
2023-08-10T06:14:45.492Z,0.89
2023-08-10T06:17:13.098Z,0.73
2023-08-10T06:19:40.615Z,0.81
2023-08-10T06:22:08.331Z,0.84
2023-08-10T06:24:35.899Z,0.78
2023-08-10T06:27:03.572Z,0.84
2023-08-10T06:29:31.094Z,0.85
2023-08-10T06:32:00.132Z,0.77
2023-08-10T06:34:27.733Z,0.77
2023-08-10T06:36:55.331Z,0.55
2023-08-10T06:39:22.773Z,0.96
2023-08-10T06:41:50.454Z,0.82
2023-08-10T06:44:17.806Z,0.73
2023-08-10T06:46:45.048Z,0.94
2023-08-10T06:49:14.063Z,0.72
2023-08-10T06:51:41.570Z,0.77
2023-08-10T06:54:09.081Z,0.86
2023-08-10T06:56:36.449Z,0.81
2023-08-10T07:01:34.613Z,0.93
2023-08-10T07:04:02.127Z,0.76
2023-08-10T07:06:31.258Z,0.90
2023-08-10T07:08:58.850Z,0.85
2023-08-10T07:11:26.222Z,0.97
2023-08-10T07:13:54.074Z,0.74
2023-08-10T07:16:21.908Z,0.74
2023-08-10T07:18:49.411Z,0.73
2023-08-10T07:21:16.929Z,0.75
2023-08-10T07:23:45.994Z,0.86
2023-08-10T07:26:13.587Z,0.67
2023-08-10T07:28:41.101Z,0.85
2023-08-10T07:31:08.583Z,0.98
2023-08-10T07:33:36.215Z,0.79
2023-08-10T07:36:03.887Z,0.84
2023-08-10T07:38:31.905Z,0.74
2023-08-10T07:41:01.089Z,0.88
2023-08-10T07:43:28.620Z,0.84
2023-08-10T07:45:56.053Z,0.90
2023-08-10T07:48:23.571Z,0.62
2023-08-10T07:50:51.412Z,0.70
2023-08-10T07:53:18.851Z,0.96
2023-08-10T07:55:46.368Z,0.87
2023-08-10T07:58:15.411Z,0.77
2023-08-10T08:00:43.167Z,0.75
2023-08-10T08:03:10.799Z,0.89
2023-08-10T08:05:38.376Z,1.16
2023-08-10T08:08:07.330Z,1.03
2023-08-10T08:10:36.752Z,0.84
2023-08-10T08:13:05.970Z,0.79
2023-08-10T08:15:35.583Z,0.82
2023-08-10T08:18:41.650Z,0.87
2023-08-10T08:21:10.774Z,0.90
2023-08-10T08:23:38.295Z,0.87
2023-08-10T08:26:05.907Z,0.95
2023-08-10T08:28:34.282Z,1.02
2023-08-10T08:31:03.898Z,0.88
2023-08-10T08:33:31.863Z,0.89
2023-08-10T08:35:59.332Z,0.94
2023-08-10T08:38:27.731Z,0.94
2023-08-10T08:40:55.807Z,0.80
2023-08-10T08:43:24.136Z,1.04
2023-08-10T08:45:52.158Z,0.92
2023-08-10T08:48:21.251Z,0.77
2023-08-10T08:50:48.874Z,0.80
2023-08-10T08:53:17.091Z,0.80
2023-08-10T08:55:44.933Z,0.88
2023-08-10T08:58:12.452Z,1.07
2023-08-10T09:00:41.330Z,1.17
2023-08-10T09:03:08.877Z,0.92
2023-08-10T09:05:38.143Z,0.81
2023-08-10T09:08:05.889Z,0.64
2023-08-10T09:10:33.915Z,0.68
2023-08-10T09:13:11.971Z,0.72
2023-08-10T09:15:39.750Z,0.67
2023-08-10T09:18:07.706Z,0.83
2023-08-10T09:20:35.438Z,0.89
2023-08-10T09:23:05.254Z,0.77
2023-08-10T09:25:37.013Z,0.79
2023-08-10T09:28:11.015Z,0.83
2023-08-10T09:30:38.764Z,0.89
2023-08-10T09:33:06.666Z,0.69
2023-08-10T09:35:34.136Z,0.77
2023-08-10T09:38:04.295Z,0.84
2023-08-10T09:40:32.303Z,0.87
2023-08-10T09:42:59.824Z,0.96
2023-08-10T09:45:27.572Z,1.07
2023-08-10T09:47:55.377Z,0.94
2023-08-10T09:50:23.005Z,0.92
2023-08-10T09:52:50.545Z,0.74
2023-08-10T09:55:20.137Z,1.01
2023-08-10T09:57:49.974Z,0.85
2023-08-10T10:00:18.370Z,0.87
2023-08-10T10:02:46.226Z,0.90
2023-08-10T10:05:22.370Z,0.71
2023-08-10T10:07:59.176Z,0.75
2023-08-10T10:10:28.934Z,0.89
2023-08-10T10:12:57.262Z,0.79
2023-08-10T10:15:26.453Z,0.82
2023-08-10T10:17:54.736Z,1.07
2023-08-10T10:20:23.004Z,0.68
2023-08-10T10:22:50.610Z,0.92
2023-08-10T10:25:21.308Z,0.85
2023-08-10T10:27:51.833Z,0.90
2023-08-10T10:30:20.770Z,0.93
2023-08-10T10:32:50.582Z,0.69
2023-08-10T10:35:23.200Z,1.01
2023-08-10T10:37:58.455Z,0.96
2023-08-10T10:40:27.431Z,0.83
2023-08-10T10:43:09.846Z,0.78
2023-08-10T10:45:39.661Z,0.77
2023-08-10T10:48:07.522Z,1.02
2023-08-10T10:50:36.084Z,0.79
2023-08-10T10:53:05.974Z,0.86
2023-08-10T10:55:41.521Z,0.99
2023-08-10T10:58:15.438Z,0.93
2023-08-10T11:00:47.904Z,1.06
2023-08-10T11:03:17.362Z,0.95
2023-08-10T11:05:44.693Z,1.06
2023-08-10T11:08:12.155Z,0.85
2023-08-10T11:10:40.692Z,1.03
2023-08-10T11:13:10.697Z,0.91
2023-08-10T11:15:38.946Z,0.91
2023-08-10T11:18:12.095Z,0.87
2023-08-10T11:20:44.140Z,0.91
2023-08-10T11:23:11.810Z,0.92
2023-08-10T11:25:48.532Z,0.86
2023-08-10T11:28:18.775Z,1.24
2023-08-10T11:30:46.848Z,1.02
2023-08-10T11:35:49.732Z,0.98
2023-08-10T11:38:17.464Z,0.88
2023-08-10T11:40:45.009Z,1.29
2023-08-10T11:43:14.851Z,0.98
2023-08-10T11:45:44.623Z,0.90
2023-08-10T11:48:14.174Z,0.94
2023-08-10T11:50:41.733Z,1.03
2023-08-10T11:53:11.419Z,0.92
2023-08-10T11:55:46.864Z,1.06
2023-08-10T11:58:16.943Z,0.94
2023-08-10T12:00:51.074Z,1.04
2023-08-10T12:03:24.515Z,0.91
2023-08-10T12:05:55.768Z,0.87
2023-08-10T12:08:27.015Z,0.76
2023-08-10T12:11:02.147Z,0.68
2023-08-10T12:13:30.290Z,0.92
2023-08-10T12:16:03.378Z,0.98
2023-08-10T12:18:31.004Z,0.90
2023-08-10T12:20:58.688Z,1.31
2023-08-10T12:23:26.218Z,1.22
2023-08-10T12:25:53.732Z,1.03
2023-08-10T12:28:22.403Z,0.80
2023-08-10T12:30:51.410Z,1.05
2023-08-10T12:33:20.464Z,0.90
2023-08-10T12:35:48.053Z,0.85
2023-08-10T12:38:15.574Z,1.00
2023-08-10T12:40:43.089Z,0.75
2023-08-10T12:43:10.689Z,0.79
2023-08-10T12:45:38.325Z,0.74
2023-08-10T12:48:07.060Z,0.69
2023-08-10T12:50:36.145Z,0.71
2023-08-10T12:53:03.892Z,0.87
2023-08-10T12:55:32.558Z,0.82
2023-08-10T12:58:00.212Z,0.69
2023-08-10T13:00:27.731Z,0.74
2023-08-10T13:02:55.545Z,0.71
2023-08-10T13:05:22.911Z,0.60
2023-08-10T13:07:52.052Z,0.64
2023-08-10T13:10:19.585Z,0.69
2023-08-10T13:12:47.110Z,0.76
2023-08-10T13:15:14.620Z,0.84
2023-08-10T13:17:42.307Z,0.61
2023-08-10T13:20:11.014Z,0.59
2023-08-10T13:22:38.937Z,0.59
2023-08-10T13:25:08.855Z,0.57
2023-08-10T13:27:36.295Z,0.62
2023-08-10T13:30:04.297Z,0.72
2023-08-10T13:32:32.060Z,0.87
2023-08-10T13:34:59.496Z,0.67
2023-08-10T13:37:27.011Z,0.80
2023-08-10T13:39:54.609Z,0.62
2023-08-10T13:42:23.658Z,0.81
2023-08-10T13:44:51.174Z,0.65
2023-08-10T13:47:18.628Z,0.68
2023-08-10T13:49:54.862Z,0.56
2023-08-10T13:52:24.536Z,0.70
2023-08-10T13:54:52.435Z,0.92
2023-08-10T13:57:20.425Z,0.74
2023-08-10T13:59:49.693Z,0.74
2023-08-10T14:02:17.626Z,0.73
2023-08-10T14:04:45.190Z,0.61
2023-08-10T14:07:12.864Z,0.81
2023-08-10T14:09:40.452Z,1.06
2023-08-10T14:12:07.975Z,0.83
2023-08-10T14:14:35.742Z,0.98
2023-08-10T14:17:05.107Z,0.77
2023-08-10T14:19:32.943Z,0.84
2023-08-10T14:22:00.612Z,0.91
2023-08-10T14:24:27.589Z,0.86
2023-08-10T14:26:55.081Z,0.77
2023-08-10T14:29:22.081Z,0.88
2023-08-10T14:31:49.813Z,0.79
2023-08-10T14:34:18.772Z,0.88
2023-08-10T14:36:45.972Z,0.98
2023-08-10T14:39:13.506Z,0.71
2023-08-10T14:41:40.852Z,0.84
2023-08-10T14:44:08.385Z,0.77
2023-08-10T14:46:36.049Z,0.92
2023-08-10T14:49:03.571Z,1.02
2023-08-10T14:51:32.548Z,0.85
2023-08-10T14:54:00.055Z,0.86
2023-08-10T14:56:27.511Z,0.80
2023-08-10T14:58:55.011Z,0.83
2023-08-10T15:01:22.533Z,0.62
2023-08-10T15:03:49.979Z,0.86
2023-08-10T15:06:17.649Z,0.85
2023-08-10T15:08:46.775Z,1.12
2023-08-10T15:11:14.234Z,1.17
2023-08-10T15:13:50.549Z,1.04
2023-08-10T15:16:18.152Z,1.04
2023-08-10T15:18:45.492Z,0.90
2023-08-10T15:21:13.012Z,1.00
2023-08-10T15:23:42.793Z,1.02
2023-08-10T15:26:11.261Z,0.92
2023-08-10T15:28:38.985Z,0.89
2023-08-10T15:31:10.965Z,0.98
2023-08-10T15:33:39.222Z,0.95
2023-08-10T15:36:07.751Z,0.90
2023-08-10T15:38:35.670Z,0.88
2023-08-10T15:41:03.974Z,1.12
2023-08-10T15:43:31.807Z,1.01
2023-08-10T15:45:59.596Z,1.11
2023-08-10T15:48:28.771Z,0.94
2023-08-10T15:50:56.300Z,0.70
2023-08-10T15:53:23.818Z,0.85
2023-08-10T15:55:51.413Z,0.95
2023-08-10T15:58:18.637Z,1.11
2023-08-10T16:00:46.247Z,0.94
2023-08-10T16:03:13.797Z,0.77
2023-08-10T16:05:43.089Z,1.07
2023-08-10T16:08:12.531Z,0.80
2023-08-10T16:10:40.213Z,1.01
2023-08-10T16:13:07.733Z,0.85
2023-08-10T16:15:35.179Z,0.86
2023-08-10T16:18:02.799Z,0.80
2023-08-10T16:20:30.309Z,0.77
2023-08-10T16:22:59.256Z,0.83
2023-08-10T16:25:26.943Z,0.71
2023-08-10T16:27:54.295Z,0.99
2023-08-10T16:30:21.901Z,1.03
2023-08-10T16:32:49.453Z,1.02
2023-08-10T16:35:17.183Z,0.88
2023-08-10T16:37:44.938Z,1.01
2023-08-10T16:40:14.304Z,1.01
2023-08-10T16:42:41.735Z,0.94
2023-08-10T16:45:10.376Z,0.95
2023-08-10T16:47:37.946Z,0.92
2023-08-10T16:50:06.689Z,0.86
2023-08-10T16:52:34.149Z,0.96
2023-08-10T16:55:01.658Z,0.88
2023-08-10T16:57:30.710Z,0.94
2023-08-10T16:59:58.302Z,0.94
2023-08-10T17:02:25.964Z,0.79
2023-08-10T17:04:53.585Z,0.89
2023-08-10T17:07:21.179Z,0.83
2023-08-10T17:09:48.617Z,0.99
2023-08-10T17:12:16.145Z,0.96
2023-08-10T17:14:45.103Z,0.92
2023-08-10T17:17:12.542Z,0.97
2023-08-10T17:19:40.485Z,0.80
2023-08-10T17:22:08.276Z,1.08
2023-08-10T17:24:36.615Z,1.12
2023-08-10T17:27:04.933Z,1.12
2023-08-10T17:29:33.116Z,0.95
2023-08-10T17:32:02.695Z,1.02
2023-08-10T17:34:30.131Z,0.88
2023-08-10T17:36:57.585Z,0.99
2023-08-10T17:39:25.255Z,0.76
2023-08-10T17:41:52.695Z,0.97
2023-08-10T17:44:20.295Z,1.14
2023-08-10T17:46:47.868Z,0.94
2023-08-10T17:49:17.100Z,1.05
2023-08-10T17:51:44.533Z,1.07
2023-08-10T17:54:12.064Z,0.96
2023-08-10T17:56:39.663Z,1.11
2023-08-10T17:59:07.412Z,1.11
2023-08-10T18:01:36.453Z,1.46
2023-08-10T18:04:04.853Z,1.33
2023-08-10T18:06:33.973Z,1.27
2023-08-10T18:09:01.500Z,1.27
2023-08-10T18:11:29.012Z,1.35
2023-08-10T18:13:56.612Z,1.47
2023-08-10T18:16:24.106Z,1.37
2023-08-10T18:18:51.734Z,1.28
2023-08-10T18:21:19.188Z,1.42
2023-08-10T18:23:48.225Z,1.45
2023-08-10T18:26:15.740Z,1.31
2023-08-10T18:28:43.256Z,1.34
2023-08-10T18:31:11.218Z,1.41
2023-08-10T18:33:38.781Z,1.62
2023-08-10T18:36:07.660Z,1.37
2023-08-10T18:38:35.173Z,1.33
2023-08-10T18:41:04.294Z,1.34
2023-08-10T18:43:32.292Z,1.29
2023-08-10T18:46:01.841Z,1.35
2023-08-10T18:48:29.413Z,1.17
2023-08-10T18:50:59.173Z,1.51
2023-08-10T18:53:27.009Z,1.32
2023-08-10T18:55:54.690Z,1.35
2023-08-10T18:58:24.158Z,1.24
2023-08-10T19:00:55.850Z,1.40
2023-08-10T19:03:23.659Z,1.38
2023-08-10T19:05:51.109Z,1.38
2023-08-10T19:08:18.853Z,1.16
2023-08-10T19:10:46.372Z,1.44
2023-08-10T19:13:13.725Z,1.61
2023-08-10T19:15:42.695Z,1.82
2023-08-10T19:18:10.255Z,1.33
2023-08-10T19:20:37.651Z,1.38
2023-08-10T19:23:05.649Z,1.39
2023-08-10T19:25:33.252Z,1.36
2023-08-10T19:28:00.693Z,1.38
2023-08-10T19:30:28.453Z,1.35
2023-08-10T19:32:57.623Z,1.26
2023-08-10T19:35:25.090Z,1.39
2023-08-10T19:37:52.451Z,1.21
2023-08-10T19:40:19.974Z,1.39
2023-08-10T19:42:47.421Z,1.23
2023-08-10T19:45:15.103Z,1.47
2023-08-10T19:47:42.563Z,1.33
2023-08-10T19:50:11.739Z,1.35
2023-08-10T19:52:40.219Z,1.42
2023-08-10T19:55:09.433Z,1.25
2023-08-10T19:57:36.937Z,1.41
2023-08-10T20:00:05.337Z,1.44
2023-08-10T20:02:32.878Z,1.33
2023-08-10T20:05:00.392Z,1.38
2023-08-10T20:07:29.498Z,1.55
2023-08-10T20:09:57.022Z,1.39
2023-08-10T20:12:24.374Z,1.52
2023-08-10T20:14:51.990Z,1.32
2023-08-10T20:17:19.575Z,1.27
2023-08-10T20:19:47.013Z,1.78
2023-08-10T20:22:14.544Z,1.53
2023-08-10T20:24:43.896Z,1.43
2023-08-10T20:27:14.063Z,1.83
2023-08-10T20:29:41.977Z,2.65
2023-08-10T20:32:09.898Z,1.75
2023-08-10T20:34:37.493Z,1.71
2023-08-10T20:37:05.493Z,1.88
2023-08-10T20:39:32.939Z,1.73
2023-08-10T20:42:02.212Z,2.02
2023-08-10T20:44:29.733Z,1.86
2023-08-10T20:46:57.341Z,1.64
2023-08-10T20:49:25.092Z,1.74
2023-08-10T20:51:52.530Z,1.70
2023-08-10T20:54:20.055Z,1.68
2023-08-10T20:56:47.487Z,1.72
2023-08-10T20:59:16.629Z,1.70
2023-08-10T21:01:44.054Z,1.75
2023-08-10T21:04:11.484Z,1.84
2023-08-10T21:06:39.100Z,1.71
2023-08-10T21:09:06.781Z,1.67
2023-08-10T21:11:34.136Z,1.61
2023-08-10T21:14:01.651Z,1.51
2023-08-10T21:16:30.772Z,1.44
2023-08-10T21:18:58.291Z,1.55
2023-08-10T21:21:25.910Z,1.63
2023-08-10T21:23:53.343Z,1.48
2023-08-10T21:26:21.012Z,1.42
2023-08-10T21:28:48.532Z,1.16
2023-08-10T21:31:16.157Z,1.51
2023-08-10T21:33:45.415Z,1.23
2023-08-10T21:36:13.013Z,1.40
2023-08-10T21:38:39.978Z,1.15
2023-08-10T21:41:07.032Z,1.30
2023-08-10T21:43:34.467Z,1.20
2023-08-10T21:46:02.074Z,1.47
2023-08-10T21:48:29.573Z,1.32
2023-08-10T21:50:58.697Z,1.29
2023-08-10T21:53:26.213Z,1.57
2023-08-10T21:55:53.675Z,1.13
2023-08-10T21:58:21.200Z,1.50
2023-08-10T22:00:48.707Z,1.27
2023-08-10T22:03:16.404Z,1.24
2023-08-10T22:05:43.898Z,1.47
2023-08-10T22:08:13.096Z,1.42
2023-08-10T22:10:40.536Z,1.21
2023-08-10T22:13:08.139Z,1.40
2023-08-10T22:15:35.655Z,1.22
2023-08-10T22:18:03.253Z,1.35
2023-08-10T22:20:30.935Z,1.10
2023-08-10T22:23:04.895Z,1.36
2023-08-10T22:25:34.861Z,1.31
2023-08-10T22:28:03.582Z,1.41
2023-08-10T22:30:31.032Z,1.45
2023-08-10T22:32:58.885Z,1.31
2023-08-10T22:35:26.620Z,1.18
2023-08-10T22:37:54.142Z,1.21
2023-08-10T22:40:21.824Z,1.28
2023-08-10T22:42:50.856Z,1.24
2023-08-10T22:45:18.387Z,1.41
2023-08-10T22:47:46.083Z,1.19
2023-08-10T22:50:13.739Z,1.54
2023-08-10T22:52:41.897Z,1.33
2023-08-10T22:55:10.622Z,1.33
2023-08-10T22:57:39.086Z,1.42
2023-08-10T23:00:09.113Z,1.27
2023-08-10T23:02:36.657Z,1.38
2023-08-10T23:05:04.628Z,1.27
2023-08-10T23:07:32.158Z,1.36
2023-08-10T23:09:59.659Z,1.34
2023-08-10T23:12:27.669Z,1.32
2023-08-10T23:14:55.571Z,1.32
2023-08-10T23:17:24.691Z,1.52
2023-08-10T23:19:52.215Z,1.24
2023-08-10T23:22:19.651Z,1.22
2023-08-10T23:24:47.169Z,1.22
2023-08-10T23:27:14.776Z,1.25
2023-08-10T23:29:42.133Z,1.29
2023-08-10T23:32:10.375Z,1.21
2023-08-10T23:34:39.581Z,1.15
2023-08-10T23:37:07.320Z,1.18
2023-08-10T23:39:35.014Z,1.11
2023-08-10T23:42:02.455Z,1.13
2023-08-10T23:44:29.819Z,0.91
2023-08-10T23:47:03.445Z,1.19
2023-08-10T23:49:40.131Z,1.05
2023-08-10T23:52:08.341Z,1.08
2023-08-10T23:54:36.053Z,1.16
2023-08-10T23:57:03.811Z,1.01
2023-08-10T23:59:31.413Z,1.16
